createdAt,value
2022-12-19T00:00:43.649Z,1.20
2022-12-19T00:01:43.767Z,1.18
2022-12-19T00:02:43.729Z,1.20
2022-12-19T00:03:43.675Z,1.20
2022-12-19T00:04:43.602Z,1.24
2022-12-19T00:05:43.584Z,1.23
2022-12-19T00:06:44.303Z,1.26
2022-12-19T00:07:43.579Z,1.26
2022-12-19T00:08:43.572Z,1.23
2022-12-19T00:09:43.548Z,1.24
2022-12-19T00:10:43.542Z,1.26
2022-12-19T00:11:43.539Z,1.26
2022-12-19T00:12:43.517Z,1.24
2022-12-19T00:13:43.640Z,1.27
2022-12-19T00:14:43.486Z,1.29
2022-12-19T00:15:43.475Z,1.27
2022-12-19T00:16:43.585Z,1.30
2022-12-19T00:17:43.457Z,1.32
2022-12-19T00:18:43.450Z,1.33
2022-12-19T00:19:43.431Z,1.33
2022-12-19T00:20:43.423Z,1.33
2022-12-19T00:21:43.407Z,1.33
2022-12-19T00:22:43.400Z,1.36
2022-12-19T00:23:43.411Z,1.37
2022-12-19T00:24:43.395Z,1.40
2022-12-19T00:25:43.366Z,1.41
2022-12-19T00:26:43.367Z,1.41
2022-12-19T00:27:43.340Z,1.42
2022-12-19T00:28:43.327Z,1.42
2022-12-19T00:29:43.312Z,1.44
2022-12-19T00:30:43.313Z,1.45
2022-12-19T00:31:43.466Z,1.48
2022-12-19T00:32:43.287Z,1.47
2022-12-19T00:33:43.778Z,1.48
2022-12-19T00:34:43.256Z,1.47
2022-12-19T00:35:43.252Z,1.48
2022-12-19T00:36:43.242Z,1.48
2022-12-19T00:37:49.172Z,1.47
2022-12-19T00:38:43.232Z,1.51
2022-12-19T00:39:43.199Z,1.48
2022-12-19T00:40:43.189Z,1.45
2022-12-19T00:41:43.182Z,1.47
2022-12-19T00:42:43.177Z,1.48
2022-12-19T00:43:43.158Z,1.47
2022-12-19T00:44:43.174Z,1.48
2022-12-19T00:45:43.151Z,1.44
2022-12-19T00:46:43.127Z,1.45
2022-12-19T00:47:43.109Z,1.45
2022-12-19T00:48:43.114Z,1.51
2022-12-19T00:49:43.094Z,1.52
2022-12-19T00:50:43.084Z,1.47
2022-12-19T00:51:43.073Z,1.47
2022-12-19T00:52:43.052Z,1.50
2022-12-19T00:53:43.043Z,1.51
2022-12-19T00:54:43.058Z,1.51
2022-12-19T00:55:43.023Z,1.51
2022-12-19T00:56:43.014Z,1.50
2022-12-19T00:57:43.009Z,1.51
2022-12-19T00:58:46.795Z,1.52
2022-12-19T00:59:42.977Z,1.54
2022-12-19T01:00:43.020Z,1.58
2022-12-19T01:01:43.338Z,1.62
2022-12-19T01:02:43.078Z,1.62
2022-12-19T01:03:58.046Z,1.59
2022-12-19T01:04:42.931Z,1.59
2022-12-19T01:05:42.903Z,1.58
2022-12-19T01:06:42.897Z,1.59
2022-12-19T01:07:42.911Z,1.58
2022-12-19T01:08:42.870Z,1.59
2022-12-19T01:09:42.875Z,1.58
2022-12-19T01:10:42.850Z,1.60
2022-12-19T01:11:42.839Z,1.59
2022-12-19T01:12:42.842Z,1.59
2022-12-19T01:13:42.821Z,1.60
2022-12-19T01:14:42.807Z,1.63
2022-12-19T01:15:42.793Z,1.63
2022-12-19T01:16:42.831Z,1.68
2022-12-19T01:17:44.712Z,1.69
2022-12-19T01:18:42.764Z,1.70
2022-12-19T01:19:44.589Z,1.70
2022-12-19T01:20:42.733Z,1.70
2022-12-19T01:21:42.722Z,1.69
2022-12-19T01:22:42.721Z,1.68
2022-12-19T01:23:42.701Z,1.68
2022-12-19T01:24:42.710Z,1.69
2022-12-19T01:25:45.254Z,1.70
2022-12-19T01:26:42.665Z,1.70
2022-12-19T01:27:42.706Z,1.70
2022-12-19T01:28:42.649Z,1.68
2022-12-19T01:29:47.896Z,1.63
2022-12-19T01:30:42.649Z,1.63
2022-12-19T01:31:42.840Z,1.63
2022-12-19T01:32:42.601Z,1.62
2022-12-19T01:33:42.588Z,1.63
2022-12-19T01:34:42.577Z,1.65
2022-12-19T01:35:42.571Z,1.66
2022-12-19T01:36:42.556Z,1.68
2022-12-19T01:37:42.549Z,1.66
2022-12-19T01:38:42.541Z,1.66
2022-12-19T01:39:44.854Z,1.68
2022-12-19T01:40:42.521Z,1.70
2022-12-19T01:41:42.500Z,1.69
2022-12-19T01:42:42.512Z,1.69
2022-12-19T01:43:42.490Z,1.79
2022-12-19T01:44:42.469Z,1.80
2022-12-19T01:45:45.976Z,1.77
2022-12-19T01:46:42.509Z,1.77
2022-12-19T01:47:42.424Z,1.79
2022-12-19T01:48:42.428Z,1.83
2022-12-19T01:49:42.409Z,1.84
2022-12-19T01:50:46.555Z,1.87
2022-12-19T01:51:42.404Z,1.88
2022-12-19T01:52:42.375Z,1.91
2022-12-19T01:53:48.331Z,1.90
2022-12-19T01:54:42.359Z,1.95
2022-12-19T01:55:42.392Z,1.99
2022-12-19T01:56:42.304Z,1.99
2022-12-19T01:57:42.284Z,1.99
2022-12-19T01:58:42.285Z,2.00
2022-12-19T01:59:42.275Z,2.05
2022-12-19T02:00:42.300Z,2.06
2022-12-19T02:01:50.759Z,2.07
2022-12-19T02:02:42.343Z,2.05
2022-12-19T02:03:42.220Z,2.07
2022-12-19T02:04:42.208Z,2.09
2022-12-19T02:05:42.204Z,2.14
2022-12-19T02:06:42.183Z,2.16
2022-12-19T02:07:42.195Z,2.18
2022-12-19T02:08:42.164Z,2.16
2022-12-19T02:09:42.157Z,2.12
2022-12-19T02:10:42.157Z,2.12
2022-12-19T02:11:42.132Z,2.12
2022-12-19T02:12:42.146Z,2.16
2022-12-19T02:13:42.105Z,2.17
2022-12-19T02:14:42.096Z,2.20
2022-12-19T02:15:42.091Z,2.24
2022-12-19T02:16:42.100Z,2.24
2022-12-19T02:17:42.079Z,2.23
2022-12-19T02:18:42.058Z,2.24
2022-12-19T02:19:42.059Z,2.25
2022-12-19T02:20:42.036Z,2.25
2022-12-19T02:21:42.029Z,2.24
2022-12-19T02:22:42.018Z,2.25
2022-12-19T02:23:41.991Z,2.28
2022-12-19T02:24:41.997Z,2.34
2022-12-19T02:25:41.985Z,2.36
2022-12-19T02:26:41.971Z,2.36
2022-12-19T02:27:41.961Z,2.38
2022-12-19T02:28:41.954Z,2.43
2022-12-19T02:29:41.954Z,2.45
2022-12-19T02:30:41.925Z,2.46
2022-12-19T02:31:41.958Z,2.46
2022-12-19T02:32:41.914Z,2.45
2022-12-19T02:33:41.883Z,2.48
2022-12-19T02:34:44.542Z,2.45
2022-12-19T02:35:41.862Z,2.43
2022-12-19T02:36:42.060Z,2.42
2022-12-19T02:37:41.846Z,2.43
2022-12-19T02:38:41.848Z,2.43
2022-12-19T02:39:41.823Z,2.45
2022-12-19T02:40:41.831Z,2.43
2022-12-19T02:41:41.810Z,2.48
2022-12-19T02:42:41.798Z,2.48
2022-12-19T02:43:41.798Z,2.53
2022-12-19T02:44:41.764Z,2.54
2022-12-19T02:45:41.836Z,2.56
2022-12-19T02:46:41.760Z,2.57
2022-12-19T02:47:41.742Z,2.61
2022-12-19T02:48:41.728Z,2.63
2022-12-19T02:49:41.716Z,2.66
2022-12-19T02:50:41.730Z,2.66
2022-12-19T02:51:41.701Z,2.66
2022-12-19T02:52:41.685Z,2.69
2022-12-19T02:53:41.674Z,2.63
2022-12-19T02:54:43.574Z,2.60
2022-12-19T02:55:41.663Z,2.59
2022-12-19T02:56:41.642Z,2.59
2022-12-19T02:57:41.625Z,2.60
2022-12-19T02:58:41.634Z,2.57
2022-12-19T02:59:41.607Z,2.61
2022-12-19T03:00:41.632Z,2.61
2022-12-19T03:01:41.727Z,2.61
2022-12-19T03:02:41.761Z,2.57
2022-12-19T03:03:41.608Z,2.60
2022-12-19T03:04:41.566Z,2.63
2022-12-19T03:05:41.552Z,2.66
2022-12-19T03:06:41.569Z,2.69
2022-12-19T03:07:41.516Z,2.67
2022-12-19T03:08:41.528Z,2.72
2022-12-19T03:09:41.515Z,2.71
2022-12-19T03:10:41.502Z,2.72
2022-12-19T03:11:41.471Z,2.75
2022-12-19T03:12:41.486Z,2.75
2022-12-19T03:13:41.486Z,2.74
2022-12-19T03:14:41.450Z,2.72
2022-12-19T03:15:41.440Z,2.67
2022-12-19T03:16:41.496Z,2.63
2022-12-19T03:17:41.407Z,2.66
2022-12-19T03:18:41.399Z,2.64
2022-12-19T03:19:41.409Z,2.61
2022-12-19T03:20:41.382Z,2.63
2022-12-19T03:21:41.408Z,2.63
2022-12-19T03:22:41.358Z,2.63
2022-12-19T03:23:41.347Z,2.61
2022-12-19T03:24:41.347Z,2.60
2022-12-19T03:25:41.339Z,2.61
2022-12-19T03:26:41.326Z,2.64
2022-12-19T03:27:41.312Z,2.61
2022-12-19T03:28:41.295Z,2.60
2022-12-19T03:29:41.278Z,2.61
2022-12-19T03:30:41.302Z,2.63
2022-12-19T03:31:41.284Z,2.63
2022-12-19T03:32:41.257Z,2.63
2022-12-19T03:33:41.236Z,2.63
2022-12-19T03:34:41.221Z,2.63
2022-12-19T03:35:41.232Z,2.66
2022-12-19T03:36:41.203Z,2.71
2022-12-19T03:37:41.194Z,2.67
2022-12-19T03:38:41.195Z,2.63
2022-12-19T03:39:41.168Z,2.61
2022-12-19T03:40:41.156Z,2.64
2022-12-19T03:41:41.150Z,2.64
2022-12-19T03:42:41.148Z,2.63
2022-12-19T03:43:41.134Z,2.60
2022-12-19T03:44:41.114Z,2.60
2022-12-19T03:45:41.139Z,2.60
2022-12-19T03:46:41.109Z,2.57
2022-12-19T03:47:41.100Z,2.59
2022-12-19T03:48:41.066Z,2.59
2022-12-19T03:49:41.061Z,2.56
2022-12-19T03:50:41.061Z,2.56
2022-12-19T03:51:41.037Z,2.53
2022-12-19T03:52:41.021Z,2.54
2022-12-19T03:53:41.035Z,2.56
2022-12-19T03:54:41.010Z,2.59
2022-12-19T03:55:40.986Z,2.63
2022-12-19T03:56:40.995Z,2.66
2022-12-19T03:57:40.973Z,2.67
2022-12-19T03:58:40.969Z,2.67
2022-12-19T03:59:40.967Z,2.69
2022-12-19T04:00:40.943Z,2.71
2022-12-19T04:01:41.043Z,2.71
2022-12-19T04:02:40.912Z,2.69
2022-12-19T04:03:41.037Z,2.67
2022-12-19T04:04:40.896Z,2.69
2022-12-19T04:05:40.887Z,2.67
2022-12-19T04:06:40.864Z,2.66
2022-12-19T04:07:40.853Z,2.67
2022-12-19T04:08:40.876Z,2.66
2022-12-19T04:09:40.857Z,2.66
2022-12-19T04:10:40.833Z,2.71
2022-12-19T04:11:40.811Z,2.74
2022-12-19T04:12:40.803Z,2.72
2022-12-19T04:13:40.786Z,2.69
2022-12-19T04:14:40.779Z,2.67
2022-12-19T04:15:40.817Z,2.71
2022-12-19T04:16:40.776Z,2.71
2022-12-19T04:17:40.758Z,2.67
2022-12-19T04:18:40.734Z,2.67
2022-12-19T04:19:42.686Z,2.77
2022-12-19T04:20:40.730Z,2.79
2022-12-19T04:21:40.694Z,2.82
2022-12-19T04:22:40.706Z,2.82
2022-12-19T04:23:40.677Z,2.81
2022-12-19T04:24:40.664Z,2.79
2022-12-19T04:25:40.655Z,2.82
2022-12-19T04:26:40.658Z,2.85
2022-12-19T04:27:40.640Z,2.89
2022-12-19T04:28:40.618Z,2.89
2022-12-19T04:29:40.606Z,2.87
2022-12-19T04:30:40.614Z,2.89
2022-12-19T04:31:40.590Z,2.89
2022-12-19T04:32:40.581Z,2.90
2022-12-19T04:33:40.562Z,2.93
2022-12-19T04:34:43.008Z,2.93
2022-12-19T04:35:40.549Z,2.93
2022-12-19T04:36:40.533Z,2.92
2022-12-19T04:37:40.519Z,2.92
2022-12-19T04:38:40.538Z,2.92
2022-12-19T04:39:40.487Z,2.93
2022-12-19T04:40:41.727Z,2.95
2022-12-19T04:41:40.477Z,2.95
2022-12-19T04:42:40.459Z,2.92
2022-12-19T04:43:40.459Z,2.92
2022-12-19T04:44:40.451Z,2.90
2022-12-19T04:45:40.424Z,2.92
2022-12-19T04:46:40.450Z,2.96
2022-12-19T04:47:40.399Z,2.96
2022-12-19T04:48:40.384Z,2.93
2022-12-19T04:49:40.406Z,2.92
2022-12-19T04:50:40.381Z,2.89
2022-12-19T04:51:40.352Z,2.89
2022-12-19T04:52:40.356Z,2.87
2022-12-19T04:53:40.346Z,2.89
2022-12-19T04:54:40.317Z,2.85
2022-12-19T04:55:40.331Z,2.84
2022-12-19T04:56:40.303Z,2.85
2022-12-19T04:57:40.318Z,2.85
2022-12-19T04:58:40.279Z,2.82
2022-12-19T04:59:40.301Z,2.84
2022-12-19T05:00:40.244Z,2.87
2022-12-19T05:01:41.074Z,2.89
2022-12-19T05:02:40.422Z,2.87
2022-12-19T05:03:40.251Z,2.84
2022-12-19T05:04:40.228Z,2.89
2022-12-19T05:05:40.210Z,2.84
2022-12-19T05:06:40.184Z,2.84
2022-12-19T05:07:40.172Z,2.84
2022-12-19T05:08:40.165Z,2.84
2022-12-19T05:09:40.198Z,2.85
2022-12-19T05:10:40.148Z,2.90
2022-12-19T05:11:40.181Z,2.89
2022-12-19T05:12:40.125Z,2.89
2022-12-19T05:13:40.116Z,2.85
2022-12-19T05:14:40.120Z,2.85
2022-12-19T05:15:40.161Z,2.90
2022-12-19T05:16:40.075Z,2.92
2022-12-19T05:17:40.072Z,2.93
2022-12-19T05:18:40.046Z,2.92
2022-12-19T05:19:40.054Z,2.93
2022-12-19T05:20:40.050Z,2.93
2022-12-19T05:21:40.039Z,2.93
2022-12-19T05:22:40.004Z,2.93
2022-12-19T05:23:39.988Z,2.97
2022-12-19T05:24:39.978Z,2.96
2022-12-19T05:25:39.990Z,2.96
2022-12-19T05:26:39.964Z,2.96
2022-12-19T05:27:39.990Z,2.97
2022-12-19T05:28:39.961Z,2.96
2022-12-19T05:29:39.943Z,2.95
2022-12-19T05:30:39.917Z,2.97
2022-12-19T05:31:39.953Z,2.97
2022-12-19T05:32:39.905Z,3.00
2022-12-19T05:33:39.885Z,3.06
2022-12-19T05:34:39.876Z,3.11
2022-12-19T05:35:39.854Z,3.14
2022-12-19T05:36:39.850Z,3.14
2022-12-19T05:37:39.854Z,3.15
2022-12-19T05:38:39.829Z,3.17
2022-12-19T05:39:39.836Z,3.14
2022-12-19T05:40:39.830Z,3.17
2022-12-19T05:41:39.795Z,3.15
2022-12-19T05:42:39.781Z,3.18
2022-12-19T05:43:39.805Z,3.21
2022-12-19T05:44:39.758Z,3.26
2022-12-19T05:45:39.761Z,3.31
2022-12-19T05:46:39.747Z,3.36
2022-12-19T05:47:39.735Z,3.40
2022-12-19T05:48:39.724Z,3.40
2022-12-19T05:49:39.750Z,3.40
2022-12-19T05:50:39.708Z,3.40
2022-12-19T05:51:39.677Z,3.42
2022-12-19T05:52:39.661Z,3.42
2022-12-19T05:53:39.652Z,3.39
2022-12-19T05:54:39.676Z,3.39
2022-12-19T05:55:39.643Z,3.36
2022-12-19T05:56:39.635Z,3.35
2022-12-19T05:57:39.608Z,3.33
2022-12-19T05:58:39.621Z,3.36
2022-12-19T05:59:39.590Z,3.39
2022-12-19T06:00:39.575Z,3.35
2022-12-19T06:01:39.696Z,3.32
2022-12-19T06:02:39.694Z,3.29
2022-12-19T06:03:39.611Z,3.26
2022-12-19T06:04:39.543Z,3.24
2022-12-19T06:05:39.534Z,3.26
2022-12-19T06:06:39.518Z,3.24
2022-12-19T06:07:39.518Z,3.21
2022-12-19T06:08:39.518Z,3.21
2022-12-19T06:09:39.472Z,3.20
2022-12-19T06:10:39.482Z,3.21
2022-12-19T06:11:39.472Z,3.23
2022-12-19T06:12:39.450Z,3.26
2022-12-19T06:13:39.434Z,3.26
2022-12-19T06:14:39.412Z,3.28
2022-12-19T06:15:39.426Z,3.31
2022-12-19T06:16:39.443Z,3.33
2022-12-19T06:17:39.435Z,3.31
2022-12-19T06:18:44.158Z,3.28
2022-12-19T06:19:39.372Z,3.28
2022-12-19T06:20:39.361Z,3.28
2022-12-19T06:21:45.426Z,3.31
2022-12-19T06:22:39.346Z,3.31
2022-12-19T06:23:39.316Z,3.32
2022-12-19T06:24:39.303Z,3.33
2022-12-19T06:25:39.290Z,3.32
2022-12-19T06:26:39.301Z,3.33
2022-12-19T06:27:39.271Z,3.39
2022-12-19T06:28:39.263Z,3.43
2022-12-19T06:29:39.279Z,3.39
2022-12-19T06:30:39.241Z,3.35
2022-12-19T06:31:39.390Z,3.36
2022-12-19T06:32:39.225Z,3.40
2022-12-19T06:33:39.219Z,3.40
2022-12-19T06:35:03.199Z,3.40
2022-12-19T06:35:39.200Z,3.43
2022-12-19T06:36:39.197Z,3.45
2022-12-19T06:37:45.848Z,3.47
2022-12-19T06:38:39.165Z,3.52
2022-12-19T06:39:39.140Z,3.54
2022-12-19T06:40:39.126Z,3.54
2022-12-19T06:41:39.115Z,3.57
2022-12-19T06:42:39.127Z,3.62
2022-12-19T06:43:39.090Z,3.66
2022-12-19T06:44:39.087Z,3.68
2022-12-19T06:45:39.166Z,3.68
2022-12-19T06:46:39.060Z,3.72
2022-12-19T06:47:39.041Z,3.76
2022-12-19T06:48:39.028Z,3.79
2022-12-19T06:49:39.022Z,3.84
2022-12-19T06:50:39.013Z,3.86
2022-12-19T06:51:39.013Z,3.88
2022-12-19T06:52:39.004Z,3.90
2022-12-19T06:53:38.984Z,3.91
2022-12-19T06:54:38.964Z,3.94
2022-12-19T06:55:38.965Z,3.94
2022-12-19T06:56:38.941Z,3.96
2022-12-19T06:57:38.930Z,3.94
2022-12-19T06:58:38.915Z,3.97
2022-12-19T06:59:38.915Z,4.00
2022-12-19T07:00:38.939Z,4.00
2022-12-19T07:01:39.025Z,3.98
2022-12-19T07:02:38.976Z,4.00
2022-12-19T07:03:38.852Z,4.02
2022-12-19T07:04:38.860Z,4.05
2022-12-19T07:05:38.832Z,4.05
2022-12-19T07:06:38.838Z,4.08
2022-12-19T07:07:38.814Z,4.12
2022-12-19T07:08:38.804Z,4.15
2022-12-19T07:09:38.810Z,4.14
2022-12-19T07:10:38.842Z,4.16
2022-12-19T07:11:38.770Z,4.22
2022-12-19T07:12:38.772Z,4.26
2022-12-19T07:13:38.757Z,4.27
2022-12-19T07:14:38.748Z,4.33
2022-12-19T07:15:38.741Z,4.37
2022-12-19T07:16:38.798Z,4.41
2022-12-19T07:17:38.715Z,4.42
2022-12-19T07:18:38.696Z,4.42
2022-12-19T07:19:38.670Z,4.42
2022-12-19T07:20:43.318Z,4.44
2022-12-19T07:21:38.660Z,4.42
2022-12-19T07:22:38.681Z,4.41
2022-12-19T07:23:38.641Z,4.44
2022-12-19T07:24:38.634Z,4.45
2022-12-19T07:25:38.608Z,4.47
2022-12-19T07:26:38.592Z,4.45
2022-12-19T07:27:38.583Z,4.44
2022-12-19T07:28:38.584Z,4.40
2022-12-19T07:29:38.571Z,4.40
2022-12-19T07:30:38.565Z,4.40
2022-12-19T07:31:38.592Z,4.34
2022-12-19T07:32:38.536Z,4.32
2022-12-19T07:33:38.542Z,4.33
2022-12-19T07:34:38.512Z,4.36
2022-12-19T07:35:38.497Z,4.37
2022-12-19T07:36:38.476Z,4.40
2022-12-19T07:37:38.522Z,4.42
2022-12-19T07:38:38.465Z,4.41
2022-12-19T07:39:38.460Z,4.40
2022-12-19T07:40:38.439Z,4.37
2022-12-19T07:41:38.437Z,4.45
2022-12-19T07:42:38.422Z,4.51
2022-12-19T07:43:38.454Z,4.54
2022-12-19T07:44:38.416Z,4.51
2022-12-19T07:45:38.449Z,4.48
2022-12-19T07:46:38.372Z,4.44
2022-12-19T07:47:38.366Z,4.40
2022-12-19T07:48:38.340Z,4.37
2022-12-19T07:49:38.376Z,4.37
2022-12-19T07:50:38.343Z,4.40
2022-12-19T07:51:38.357Z,4.42
2022-12-19T07:52:38.303Z,4.45
2022-12-19T07:53:38.289Z,4.48
2022-12-19T07:54:38.294Z,4.48
2022-12-19T07:55:38.269Z,4.48
2022-12-19T07:56:38.280Z,4.45
2022-12-19T07:57:38.260Z,4.44
2022-12-19T07:58:38.247Z,4.47
2022-12-19T07:59:39.385Z,4.48
2022-12-19T08:00:38.208Z,4.51
2022-12-19T08:01:38.300Z,4.51
2022-12-19T08:02:38.376Z,4.55
2022-12-19T08:03:38.177Z,4.54
2022-12-19T08:04:38.187Z,4.54
2022-12-19T08:05:38.173Z,4.52
2022-12-19T08:06:41.272Z,4.58
2022-12-19T08:07:38.172Z,4.60
2022-12-19T08:08:38.135Z,4.59
2022-12-19T08:09:38.154Z,4.58
2022-12-19T08:10:38.101Z,4.58
2022-12-19T08:11:38.097Z,4.55
2022-12-19T08:12:38.083Z,4.59
2022-12-19T08:13:43.273Z,4.62
2022-12-19T08:14:38.074Z,4.63
2022-12-19T08:15:38.041Z,4.66
2022-12-19T08:17:11.107Z,4.63
2022-12-19T08:17:38.136Z,4.66
2022-12-19T08:18:38.032Z,4.67
2022-12-19T08:19:38.001Z,4.67
2022-12-19T08:20:38.000Z,4.67
2022-12-19T08:21:37.986Z,4.67
2022-12-19T08:22:37.994Z,4.67
2022-12-19T08:23:37.980Z,4.70
2022-12-19T08:24:37.964Z,4.72
2022-12-19T08:25:37.955Z,4.73
2022-12-19T08:26:41.831Z,4.73
2022-12-19T08:27:37.925Z,4.72
2022-12-19T08:28:37.889Z,4.75
2022-12-19T08:29:37.887Z,4.80
2022-12-19T08:30:37.985Z,4.84
2022-12-19T08:31:37.878Z,4.84
2022-12-19T08:32:37.903Z,4.86
2022-12-19T08:33:37.862Z,4.86
2022-12-19T08:34:37.854Z,4.88
2022-12-19T08:35:37.838Z,4.91
2022-12-19T08:36:37.801Z,4.92
2022-12-19T08:37:37.798Z,4.92
2022-12-19T08:38:37.817Z,4.96
2022-12-19T08:39:37.831Z,4.97
2022-12-19T08:40:40.506Z,4.99
2022-12-19T08:41:37.763Z,4.99
2022-12-19T08:42:37.753Z,5.00
2022-12-19T08:43:37.770Z,5.00
2022-12-19T08:44:37.706Z,4.99
2022-12-19T08:45:37.771Z,5.02
2022-12-19T08:46:37.793Z,5.03
2022-12-19T08:47:37.691Z,5.04
2022-12-19T08:48:37.676Z,5.04
2022-12-19T08:49:37.683Z,5.04
2022-12-19T08:50:37.661Z,5.06
2022-12-19T08:51:37.641Z,5.06
2022-12-19T08:52:37.628Z,5.10
2022-12-19T08:53:37.665Z,5.09
2022-12-19T08:54:37.636Z,5.10
2022-12-19T08:55:37.623Z,5.09
2022-12-19T08:56:37.604Z,5.07
2022-12-19T08:57:37.595Z,5.07
2022-12-19T08:58:37.589Z,5.09
2022-12-19T08:59:37.567Z,5.13
2022-12-19T09:00:37.553Z,5.18
2022-12-19T09:01:37.580Z,5.20
2022-12-19T09:02:37.773Z,5.20
2022-12-19T09:03:56.173Z,5.20
2022-12-19T09:05:59.259Z,5.20
2022-12-19T09:06:17.157Z,5.18
2022-12-19T09:06:44.294Z,5.18
2022-12-19T09:07:44.181Z,5.17
2022-12-19T09:08:44.178Z,5.18
2022-12-19T09:09:44.234Z,5.20
2022-12-19T09:10:44.202Z,5.18
2022-12-19T09:11:47.630Z,5.21
2022-12-19T09:12:44.132Z,5.22
2022-12-19T09:13:44.142Z,5.27
2022-12-19T09:14:44.225Z,5.30
2022-12-19T09:15:44.117Z,5.33
2022-12-19T09:16:44.113Z,5.38
2022-12-19T09:17:44.082Z,5.45
2022-12-19T09:18:48.417Z,5.48
2022-12-19T09:19:44.515Z,5.51
2022-12-19T09:20:44.051Z,5.51
2022-12-19T09:21:44.063Z,5.54
2022-12-19T09:22:44.019Z,5.54
2022-12-19T09:23:44.079Z,5.56
2022-12-19T09:24:44.043Z,5.58
2022-12-19T09:25:43.986Z,5.61
2022-12-19T09:26:44.005Z,5.61
2022-12-19T09:28:17.932Z,5.64
2022-12-19T09:28:43.968Z,5.67
2022-12-19T09:29:43.961Z,5.68
2022-12-19T09:30:43.952Z,5.75
2022-12-19T09:31:43.916Z,5.78
2022-12-19T09:32:43.906Z,5.79
2022-12-19T09:33:44.222Z,5.81
2022-12-19T09:34:43.885Z,5.82
2022-12-19T09:35:43.894Z,5.85
2022-12-19T09:36:43.852Z,5.90
2022-12-19T09:37:43.881Z,5.91
2022-12-19T09:38:43.838Z,5.86
2022-12-19T09:39:43.820Z,5.86
2022-12-19T09:40:43.806Z,5.90
2022-12-19T09:41:43.826Z,5.93
2022-12-19T09:42:43.802Z,5.91
2022-12-19T09:43:43.833Z,5.93
2022-12-19T09:44:43.767Z,5.94
2022-12-19T09:45:43.764Z,5.96
2022-12-19T09:46:43.852Z,5.99
2022-12-19T09:47:43.741Z,6.00
2022-12-19T09:48:45.245Z,6.00
2022-12-19T09:49:43.723Z,6.01
2022-12-19T09:50:43.713Z,6.04
2022-12-19T09:51:43.701Z,6.04
2022-12-19T09:52:43.700Z,6.08
2022-12-19T09:53:43.672Z,6.09
2022-12-19T09:54:43.651Z,6.12
2022-12-19T09:55:43.649Z,6.14
2022-12-19T09:56:45.750Z,6.17
2022-12-19T09:57:43.628Z,6.14
2022-12-19T09:58:43.613Z,6.14
2022-12-19T09:59:49.603Z,6.11
2022-12-19T10:00:43.611Z,6.11
2022-12-19T10:01:43.729Z,6.09
2022-12-19T10:02:43.838Z,6.09
2022-12-19T10:03:43.620Z,6.11
2022-12-19T10:04:43.554Z,6.09
2022-12-19T10:06:16.703Z,6.09
2022-12-19T10:07:40.077Z,6.11
2022-12-19T10:08:08.361Z,6.12
2022-12-19T10:09:34.061Z,6.11
2022-12-19T10:12:39.944Z,6.14
2022-12-19T10:12:53.155Z,6.15
2022-12-19T10:13:00.079Z,6.14
2022-12-19T10:13:59.573Z,6.15
2022-12-19T10:14:59.555Z,6.15
2022-12-19T10:16:00.683Z,6.15
2022-12-19T10:17:22.988Z,6.15
2022-12-19T10:17:59.530Z,6.19
2022-12-19T10:18:59.532Z,6.19
2022-12-19T10:19:59.522Z,6.19
2022-12-19T10:20:59.488Z,6.22
2022-12-19T10:22:17.718Z,6.25
2022-12-19T10:22:59.490Z,6.25
2022-12-19T10:23:59.485Z,6.28
2022-12-19T10:25:08.292Z,6.27
2022-12-19T10:25:59.451Z,6.28
2022-12-19T10:26:59.440Z,6.28
2022-12-19T10:28:00.560Z,6.27
2022-12-19T10:28:59.439Z,6.19
2022-12-19T10:29:59.391Z,6.14
2022-12-19T10:31:02.634Z,6.12
2022-12-19T10:31:59.499Z,6.15
2022-12-19T10:32:59.403Z,6.14
2022-12-19T10:33:59.374Z,6.15
2022-12-19T10:34:59.424Z,6.17
2022-12-19T10:36:02.331Z,6.15
2022-12-19T10:37:27.052Z,6.17
2022-12-19T10:37:59.319Z,6.19
2022-12-19T10:38:59.311Z,6.18
2022-12-19T10:39:59.292Z,6.19
2022-12-19T10:40:59.295Z,6.21
2022-12-19T10:41:59.313Z,6.19
2022-12-19T10:42:59.270Z,6.17
2022-12-19T10:43:59.271Z,6.18
2022-12-19T10:44:59.241Z,6.17
2022-12-19T10:45:59.413Z,6.17
2022-12-19T10:46:59.283Z,6.19
2022-12-19T10:47:59.186Z,6.19
2022-12-19T10:48:59.197Z,6.17
2022-12-19T10:50:03.879Z,6.15
2022-12-19T10:51:02.112Z,6.15
2022-12-19T10:51:59.184Z,6.18
2022-12-19T10:52:59.183Z,6.18
2022-12-19T10:53:59.145Z,6.18
2022-12-19T10:54:59.169Z,6.21
2022-12-19T10:55:59.128Z,6.22
2022-12-19T10:56:59.104Z,6.21
2022-12-19T10:57:59.088Z,6.27
2022-12-19T10:58:59.090Z,6.28
2022-12-19T10:59:59.102Z,6.28
2022-12-19T11:00:59.115Z,6.33
2022-12-19T11:02:00.654Z,6.33
2022-12-19T11:02:59.158Z,6.31
2022-12-19T11:03:59.045Z,6.25
2022-12-19T11:04:59.165Z,6.21
2022-12-19T11:05:59.048Z,6.21
2022-12-19T11:06:58.976Z,6.19
2022-12-19T11:07:58.998Z,6.21
2022-12-19T11:08:59.013Z,6.25
2022-12-19T11:10:43.483Z,6.22
2022-12-19T11:16:47.266Z,6.27
2022-12-19T11:29:37.047Z,6.27
2022-12-19T11:33:14.892Z,6.46
2022-12-19T11:34:14.755Z,6.44
2022-12-19T11:35:14.750Z,6.44
2022-12-19T11:36:14.737Z,6.51
2022-12-19T11:37:14.725Z,6.49
2022-12-19T11:38:14.702Z,6.52
2022-12-19T11:39:14.691Z,6.54
2022-12-19T11:40:14.756Z,6.54
2022-12-19T11:41:14.675Z,6.54
2022-12-19T11:42:14.663Z,6.55
2022-12-19T11:44:14.652Z,6.55
2022-12-19T11:45:14.635Z,6.59
2022-12-19T11:46:21.177Z,6.58
2022-12-19T11:47:14.618Z,6.56
2022-12-19T11:48:14.592Z,6.55
2022-12-19T11:49:14.583Z,6.55
2022-12-19T11:50:14.610Z,6.54
2022-12-19T11:51:14.578Z,6.58
2022-12-19T11:52:36.787Z,6.58
2022-12-19T11:53:18.895Z,6.56
2022-12-19T11:54:14.524Z,6.56
2022-12-19T11:55:14.521Z,6.56
2022-12-19T11:56:16.245Z,6.58
2022-12-19T11:57:14.523Z,6.61
2022-12-19T11:58:14.538Z,6.64
2022-12-19T11:59:14.486Z,6.67
2022-12-19T12:00:14.481Z,6.66
2022-12-19T12:01:14.440Z,6.64
2022-12-19T12:02:14.440Z,6.70
2022-12-19T12:03:14.528Z,6.73
2022-12-19T12:04:14.741Z,6.73
2022-12-19T12:05:14.403Z,6.74
2022-12-19T12:06:14.400Z,6.74
2022-12-19T12:07:51.726Z,6.70
2022-12-19T12:10:06.004Z,6.73
2022-12-19T12:27:26.100Z,6.76
2022-12-19T12:35:46.913Z,7.10
2022-12-19T12:38:24.823Z,7.27
2022-12-19T12:39:03.873Z,7.28
2022-12-19T12:40:03.721Z,7.28
2022-12-19T12:41:03.744Z,7.25
2022-12-19T12:42:03.703Z,7.28
2022-12-19T12:43:03.671Z,7.27
2022-12-19T12:44:03.703Z,7.31
2022-12-19T12:45:03.686Z,7.32
2022-12-19T12:46:03.779Z,7.35
2022-12-19T12:47:03.695Z,7.34
2022-12-19T12:48:03.685Z,7.37
2022-12-19T12:49:03.633Z,7.39
2022-12-19T12:50:03.616Z,7.39
2022-12-19T12:51:03.589Z,7.40
2022-12-19T12:52:03.637Z,7.42
2022-12-19T12:53:03.568Z,7.45
2022-12-19T12:54:03.628Z,7.48
2022-12-19T12:55:03.545Z,7.49
2022-12-19T12:56:05.670Z,7.52
2022-12-19T12:57:03.537Z,7.53
2022-12-19T12:58:03.516Z,7.55
2022-12-19T12:59:03.495Z,7.55
2022-12-19T13:00:03.519Z,7.55
2022-12-19T13:01:03.533Z,7.58
2022-12-19T13:02:03.675Z,7.58
2022-12-19T13:03:03.681Z,7.60
2022-12-19T13:04:03.479Z,7.58
2022-12-19T13:05:03.439Z,7.55
2022-12-19T13:06:03.437Z,7.55
2022-12-19T13:07:03.406Z,7.55
2022-12-19T13:08:03.438Z,7.53
2022-12-19T13:09:03.389Z,7.48
2022-12-19T13:10:03.381Z,7.50
2022-12-19T13:11:03.370Z,7.52
2022-12-19T13:12:03.376Z,7.52
2022-12-19T13:13:04.348Z,7.49
2022-12-19T13:14:03.332Z,7.48
2022-12-19T13:15:03.371Z,7.43
2022-12-19T13:16:03.327Z,7.42
2022-12-19T13:17:03.469Z,7.42
2022-12-19T13:18:03.294Z,7.43
2022-12-19T13:19:03.318Z,7.43
2022-12-19T13:20:03.272Z,7.42
2022-12-19T13:21:03.272Z,7.40
2022-12-19T13:22:03.242Z,7.39
2022-12-19T13:23:03.273Z,7.40
2022-12-19T13:24:03.225Z,7.40
2022-12-19T13:25:03.240Z,7.42
2022-12-19T13:26:03.204Z,7.40
2022-12-19T13:27:03.204Z,7.42
2022-12-19T13:28:03.208Z,7.37
2022-12-19T13:29:03.193Z,7.37
2022-12-19T13:30:03.159Z,7.37
2022-12-19T13:31:18.576Z,7.37
2022-12-19T13:32:03.284Z,7.39
2022-12-19T13:33:03.150Z,7.39
2022-12-19T13:34:03.113Z,7.37
2022-12-19T13:35:42.026Z,7.37
2022-12-19T13:40:08.700Z,7.37
2022-12-19T13:40:20.506Z,7.32
2022-12-19T13:41:01.515Z,7.31
2022-12-19T13:42:01.500Z,7.31
2022-12-19T13:43:10.628Z,7.31
2022-12-19T13:44:01.495Z,7.27
2022-12-19T13:45:01.464Z,7.30
2022-12-19T13:46:01.524Z,7.30
2022-12-19T13:47:01.461Z,7.30
2022-12-19T13:48:01.429Z,7.28
2022-12-19T13:49:01.425Z,7.28
2022-12-19T13:50:01.418Z,7.28
2022-12-19T13:51:01.398Z,7.28
2022-12-19T13:52:01.383Z,7.27
2022-12-19T13:53:01.409Z,7.25
2022-12-19T13:54:01.367Z,7.24
2022-12-19T13:55:01.349Z,7.20
2022-12-19T13:56:01.343Z,7.21
2022-12-19T13:57:07.618Z,7.23
2022-12-19T13:58:01.333Z,7.17
2022-12-19T13:59:01.348Z,7.17
2022-12-19T14:00:01.708Z,7.17
2022-12-19T14:01:01.424Z,7.15
2022-12-19T14:02:01.405Z,7.13
2022-12-19T14:03:01.464Z,7.16
2022-12-19T14:04:07.606Z,7.15
2022-12-19T14:05:01.262Z,7.15
2022-12-19T14:06:18.777Z,7.16
2022-12-19T14:07:01.219Z,7.13
2022-12-19T14:08:01.229Z,7.12
2022-12-19T14:09:25.287Z,7.12
2022-12-19T14:12:11.651Z,7.09
2022-12-19T14:14:03.132Z,7.02